createdAt,value
2018-07-20T00:00:54.244Z,20.10
2018-07-20T00:03:21.438Z,20.10
2018-07-20T00:05:48.659Z,20.00
2018-07-20T00:08:15.901Z,20.00
2018-07-20T00:10:43.106Z,19.90
2018-07-20T00:13:10.363Z,19.90
2018-07-20T00:15:37.619Z,19.80
2018-07-20T00:18:05.299Z,19.80
2018-07-20T00:20:32.626Z,19.70
2018-07-20T00:22:59.870Z,19.70
2018-07-20T00:25:27.147Z,19.70
2018-07-20T00:27:54.395Z,19.60
2018-07-20T00:30:21.789Z,19.60
2018-07-20T00:32:49.031Z,19.60
2018-07-20T00:35:16.356Z,19.50
2018-07-20T00:37:43.617Z,19.50
2018-07-20T00:40:10.894Z,19.40
2018-07-20T00:42:38.156Z,19.40
2018-07-20T00:45:05.681Z,19.40
2018-07-20T00:47:32.931Z,19.40
2018-07-20T00:50:00.274Z,19.30
2018-07-20T00:52:27.515Z,19.30
2018-07-20T00:54:54.773Z,19.30
2018-07-20T00:57:22.056Z,19.30
2018-07-20T00:59:49.415Z,19.20
2018-07-20T01:02:16.756Z,19.20
2018-07-20T01:04:44.011Z,19.20
2018-07-20T01:07:11.370Z,19.20
2018-07-20T01:09:38.631Z,19.20
2018-07-20T01:12:05.998Z,19.20
2018-07-20T01:14:33.299Z,19.20
2018-07-20T01:17:00.522Z,19.10
2018-07-20T01:19:27.794Z,19.10
2018-07-20T01:21:55.085Z,19.10
2018-07-20T01:24:22.366Z,19.10
2018-07-20T01:26:49.695Z,19.00
2018-07-20T01:29:17.087Z,19.10
2018-07-20T01:31:44.347Z,19.10
2018-07-20T01:36:38.857Z,19.00
2018-07-20T01:39:06.761Z,19.00
2018-07-20T01:41:35.093Z,19.00
2018-07-20T01:44:02.357Z,18.90
2018-07-20T01:46:29.630Z,18.90
2018-07-20T01:48:56.908Z,18.80
2018-07-20T01:51:24.163Z,18.80
2018-07-20T01:53:51.399Z,18.70
2018-07-20T01:56:18.650Z,18.70
2018-07-20T01:58:46.936Z,18.70
2018-07-20T02:01:14.147Z,18.60
2018-07-20T02:03:41.355Z,18.60
2018-07-20T02:06:08.556Z,18.60
2018-07-20T02:08:35.761Z,18.60
2018-07-20T02:11:03.060Z,18.50
2018-07-20T02:15:58.016Z,18.50
2018-07-20T02:18:25.215Z,18.50
2018-07-20T02:20:52.427Z,18.50
2018-07-20T02:23:20.588Z,18.40
2018-07-20T02:25:47.811Z,18.40
2018-07-20T02:28:15.011Z,18.40
2018-07-20T02:30:42.564Z,18.30
2018-07-20T02:33:09.870Z,18.30
2018-07-20T02:38:04.360Z,18.20
2018-07-20T02:40:31.652Z,18.20
2018-07-20T02:42:58.964Z,18.20
2018-07-20T02:45:26.173Z,18.20
2018-07-20T02:47:53.379Z,18.10
2018-07-20T02:50:20.610Z,18.10
2018-07-20T02:52:47.848Z,18.10
2018-07-20T02:55:15.847Z,18.00
2018-07-20T02:57:43.079Z,18.10
2018-07-20T03:00:10.280Z,18.00
2018-07-20T03:02:37.796Z,18.10
2018-07-20T03:05:05.031Z,18.00
2018-07-20T03:07:32.225Z,18.00
2018-07-20T03:09:59.571Z,17.90
2018-07-20T03:12:26.750Z,17.90
2018-07-20T03:14:53.960Z,17.90
2018-07-20T03:17:21.279Z,17.90
2018-07-20T03:19:48.484Z,17.90
2018-07-20T03:22:15.699Z,17.90
2018-07-20T03:24:43.038Z,17.80
2018-07-20T03:27:10.287Z,17.70
2018-07-20T03:29:37.624Z,17.70
2018-07-20T03:32:05.696Z,17.70
2018-07-20T03:34:32.899Z,17.70
2018-07-20T03:37:00.120Z,17.70
2018-07-20T03:39:27.328Z,17.70
2018-07-20T03:44:21.822Z,17.60
2018-07-20T03:46:49.033Z,17.60
2018-07-20T03:49:16.328Z,17.60
2018-07-20T03:51:43.527Z,17.50
2018-07-20T03:54:10.741Z,17.50
2018-07-20T03:56:38.176Z,17.50
2018-07-20T03:59:05.630Z,17.50
2018-07-20T04:01:33.086Z,17.50
2018-07-20T04:04:00.535Z,17.60
2018-07-20T04:06:27.999Z,17.50
2018-07-20T04:08:55.463Z,17.50
2018-07-20T04:11:22.896Z,17.50
2018-07-20T04:13:50.415Z,17.60
2018-07-20T04:16:17.933Z,17.60
2018-07-20T04:18:45.435Z,17.60
2018-07-20T04:23:40.435Z,17.70
2018-07-20T04:26:08.004Z,17.80
2018-07-20T04:28:35.525Z,17.80
2018-07-20T04:31:03.003Z,17.90
2018-07-20T04:33:30.424Z,17.90
2018-07-20T04:40:52.864Z,18.00
2018-07-20T04:43:20.316Z,18.10
2018-07-20T04:45:47.775Z,18.10
2018-07-20T04:48:15.205Z,18.10
2018-07-20T04:50:42.654Z,18.20
2018-07-20T04:53:10.130Z,18.30
2018-07-20T04:55:37.695Z,18.40
2018-07-20T05:00:32.548Z,18.60
2018-07-20T05:02:59.931Z,18.70
2018-07-20T05:05:27.360Z,18.80
2018-07-20T05:10:22.211Z,19.00
2018-07-20T05:12:49.623Z,19.10
2018-07-20T05:17:44.414Z,19.30
2018-07-20T05:20:11.852Z,19.40
2018-07-20T05:22:39.291Z,19.50
2018-07-20T05:25:06.847Z,19.90
2018-07-20T05:27:34.378Z,20.30
2018-07-20T05:30:01.795Z,20.70
2018-07-20T05:34:56.677Z,21.50
2018-07-20T05:37:24.163Z,21.90
2018-07-20T05:39:51.559Z,22.20
2018-07-20T05:42:19.076Z,22.40
2018-07-20T05:44:46.494Z,22.60
2018-07-20T05:47:13.995Z,22.60
2018-07-20T05:49:41.414Z,22.50
2018-07-20T05:52:08.865Z,22.50
2018-07-20T05:54:36.331Z,22.20
2018-07-20T05:57:05.239Z,22.30
2018-07-20T05:59:32.693Z,22.30
2018-07-20T06:02:00.115Z,22.20
2018-07-20T06:04:27.602Z,22.10
2018-07-20T06:06:55.109Z,22.10
2018-07-20T06:09:22.517Z,22.00
2018-07-20T06:11:49.957Z,22.00
2018-07-20T06:14:17.489Z,22.00
2018-07-20T06:16:44.900Z,22.10
2018-07-20T06:19:12.436Z,22.10
2018-07-20T06:21:39.948Z,22.10
2018-07-20T06:24:07.515Z,21.90
2018-07-20T06:26:34.995Z,22.10
2018-07-20T06:29:02.460Z,22.30
2018-07-20T06:31:29.950Z,22.40
2018-07-20T06:33:57.559Z,22.40
2018-07-20T06:36:25.051Z,22.40
2018-07-20T06:38:52.581Z,22.60
2018-07-20T06:41:20.167Z,22.60
2018-07-20T06:43:47.599Z,22.90
2018-07-20T06:46:15.043Z,23.10
2018-07-20T06:48:42.483Z,23.30
2018-07-20T06:51:10.115Z,23.10
2018-07-20T06:53:37.607Z,23.30
2018-07-20T06:56:05.094Z,23.40
2018-07-20T07:00:59.944Z,23.50
2018-07-20T07:03:27.383Z,23.70
2018-07-20T07:05:54.793Z,23.80
2018-07-20T07:08:22.176Z,23.90
2018-07-20T07:10:49.575Z,24.00
2018-07-20T07:13:16.999Z,24.10
2018-07-20T07:15:44.439Z,24.20
2018-07-20T07:20:39.403Z,24.30
2018-07-20T07:23:06.787Z,24.50
2018-07-20T07:25:34.170Z,24.50
2018-07-20T07:30:29.188Z,24.40
2018-07-20T07:32:56.572Z,24.50
2018-07-20T07:35:23.999Z,24.40
2018-07-20T07:37:51.595Z,24.30
2018-07-20T07:40:20.231Z,24.50
2018-07-20T07:42:47.696Z,24.60
2018-07-20T07:45:18.907Z,24.90
2018-07-20T07:47:48.495Z,25.00
2018-07-20T07:50:18.023Z,25.20
2018-07-20T07:52:45.521Z,25.30
2018-07-20T07:55:12.993Z,25.20
2018-07-20T07:57:40.427Z,25.30
2018-07-20T08:00:07.859Z,25.50
2018-07-20T08:02:35.280Z,25.60
2018-07-20T08:05:02.720Z,25.80
2018-07-20T08:07:31.242Z,25.80
2018-07-20T08:09:58.727Z,25.90
2018-07-20T08:12:26.086Z,25.90
2018-07-20T08:14:53.495Z,26.00
2018-07-20T08:17:22.008Z,26.00
2018-07-20T08:19:49.552Z,26.00
2018-07-20T08:22:18.023Z,26.10
2018-07-20T08:24:45.531Z,26.20
2018-07-20T08:27:12.953Z,26.20
2018-07-20T08:29:40.391Z,26.30
2018-07-20T08:32:07.971Z,26.20
2018-07-20T08:34:35.462Z,26.30
2018-07-20T08:37:02.946Z,26.30
2018-07-20T08:39:30.377Z,26.20
2018-07-20T08:41:57.755Z,26.20
2018-07-20T08:46:52.564Z,26.50
2018-07-20T08:49:19.987Z,26.50
2018-07-20T08:51:47.415Z,26.60
2018-07-20T08:54:14.928Z,26.70
2018-07-20T08:56:42.319Z,26.80
2018-07-20T08:59:09.716Z,26.80
2018-07-20T09:01:37.143Z,26.80
2018-07-20T09:04:04.551Z,26.90
2018-07-20T09:08:59.459Z,26.90
2018-07-20T09:11:26.876Z,27.00
2018-07-20T09:13:54.420Z,27.00
2018-07-20T09:16:21.712Z,27.00
2018-07-20T09:18:49.127Z,27.10
2018-07-20T09:21:16.537Z,27.30
2018-07-20T09:23:43.943Z,27.40
2018-07-20T09:28:38.855Z,27.50
2018-07-20T09:31:06.343Z,27.30
2018-07-20T09:33:33.870Z,27.20
2018-07-20T09:36:01.263Z,27.20
2018-07-20T09:38:28.667Z,27.20
2018-07-20T09:40:56.080Z,27.40
2018-07-20T09:43:23.619Z,27.50
2018-07-20T09:45:51.268Z,27.60
2018-07-20T09:48:18.675Z,27.80
2018-07-20T09:50:46.179Z,28.00
2018-07-20T09:53:13.669Z,28.30
2018-07-20T09:55:41.102Z,28.50
2018-07-20T09:58:08.528Z,28.80
2018-07-20T10:00:36.805Z,29.00
2018-07-20T10:03:04.347Z,29.30
2018-07-20T10:05:31.892Z,29.40
2018-07-20T10:07:59.335Z,29.40
2018-07-20T10:10:26.727Z,29.50
2018-07-20T10:12:54.145Z,29.50
2018-07-20T10:15:21.599Z,29.80
2018-07-20T10:17:49.000Z,30.10
2018-07-20T10:20:16.400Z,30.40
2018-07-20T10:22:43.897Z,30.60
2018-07-20T10:25:11.380Z,30.90
2018-07-20T10:30:06.500Z,31.70
2018-07-20T10:32:33.935Z,32.00
2018-07-20T10:35:01.347Z,31.70
2018-07-20T10:37:28.852Z,31.60
2018-07-20T10:39:56.243Z,31.60
2018-07-20T10:42:23.624Z,31.70
2018-07-20T10:44:51.044Z,31.50
2018-07-20T10:47:18.451Z,31.40
2018-07-20T10:49:45.890Z,31.40
2018-07-20T10:52:13.698Z,31.50
2018-07-20T10:54:41.079Z,31.60
2018-07-20T10:57:08.615Z,31.80
2018-07-20T10:59:36.074Z,31.90
2018-07-20T11:02:03.563Z,31.90
2018-07-20T11:04:31.016Z,32.10
2018-07-20T11:06:58.549Z,32.10
2018-07-20T11:09:25.978Z,32.10
2018-07-20T11:11:53.515Z,32.00
2018-07-20T11:14:20.979Z,32.30
2018-07-20T11:16:48.496Z,32.50
2018-07-20T11:19:15.922Z,32.70
2018-07-20T11:21:43.362Z,32.40
2018-07-20T11:24:10.816Z,32.00
2018-07-20T11:26:38.292Z,31.90
2018-07-20T11:29:05.800Z,31.80
2018-07-20T11:31:33.331Z,31.80
2018-07-20T11:34:00.843Z,32.10
2018-07-20T11:36:28.316Z,32.20
2018-07-20T11:38:55.759Z,32.10
2018-07-20T11:41:23.327Z,32.50
2018-07-20T11:43:50.811Z,32.80
2018-07-20T11:46:18.271Z,33.20
2018-07-20T11:48:45.695Z,33.50
2018-07-20T11:51:13.150Z,33.70
2018-07-20T11:53:40.611Z,33.70
2018-07-20T11:56:08.050Z,33.80
2018-07-20T11:58:35.488Z,33.90
2018-07-20T12:01:02.971Z,33.70
2018-07-20T12:03:30.496Z,33.90
2018-07-20T12:05:57.972Z,33.60
2018-07-20T12:08:25.260Z,33.20
2018-07-20T12:10:52.520Z,33.20
2018-07-20T12:13:19.857Z,33.40
2018-07-20T12:15:47.107Z,33.70
2018-07-20T12:18:14.357Z,33.90
2018-07-20T12:20:41.637Z,34.00
2018-07-20T12:23:08.915Z,34.10
2018-07-20T12:25:36.172Z,33.90
2018-07-20T12:28:03.452Z,33.90
2018-07-20T12:32:58.040Z,34.00
2018-07-20T12:35:25.394Z,34.30
2018-07-20T12:37:52.760Z,34.40
2018-07-20T12:40:20.275Z,34.10
2018-07-20T12:42:47.561Z,34.30
2018-07-20T12:45:14.817Z,34.40
2018-07-20T12:47:42.120Z,34.40
2018-07-20T12:50:09.455Z,34.10
2018-07-20T12:52:36.696Z,33.60
2018-07-20T12:57:31.244Z,32.70
2018-07-20T12:59:58.481Z,32.30
2018-07-20T13:02:25.839Z,32.30
2018-07-20T13:04:53.187Z,32.60
2018-07-20T13:07:20.519Z,32.70
2018-07-20T13:12:15.124Z,33.00
2018-07-20T13:14:42.386Z,33.10
2018-07-20T13:17:09.704Z,33.40
2018-07-20T13:19:37.084Z,33.60
2018-07-20T13:22:04.869Z,33.90
2018-07-20T13:24:32.133Z,33.70
2018-07-20T13:26:59.475Z,33.40
2018-07-20T13:31:54.016Z,32.50
2018-07-20T13:34:21.306Z,31.90
2018-07-20T13:36:48.634Z,31.80
2018-07-20T13:39:15.931Z,31.30
2018-07-20T13:41:43.200Z,31.60
2018-07-20T13:44:10.435Z,31.60
2018-07-20T13:46:37.688Z,31.60
2018-07-20T13:51:32.439Z,30.80
2018-07-20T13:53:59.795Z,31.00
2018-07-20T13:56:28.134Z,31.20
2018-07-20T13:58:55.407Z,31.50
2018-07-20T14:01:22.638Z,31.80
2018-07-20T14:03:49.903Z,32.20
2018-07-20T14:06:17.130Z,32.50
2018-07-20T14:08:44.406Z,32.90
2018-07-20T14:11:15.329Z,33.10
2018-07-20T14:13:42.529Z,33.10
2018-07-20T14:16:09.992Z,32.80
2018-07-20T14:18:37.210Z,32.90
2018-07-20T14:21:04.535Z,32.60
2018-07-20T14:23:33.097Z,32.70
2018-07-20T14:26:00.524Z,32.70
2018-07-20T14:28:28.019Z,32.50
2018-07-20T14:30:55.449Z,32.50
2018-07-20T14:33:22.904Z,32.30
2018-07-20T14:35:50.252Z,32.50
2018-07-20T14:38:17.683Z,32.40
2018-07-20T14:40:45.075Z,32.40
2018-07-20T14:43:12.539Z,32.50
2018-07-20T14:45:40.057Z,32.60
2018-07-20T14:48:07.538Z,32.70
2018-07-20T14:50:34.970Z,32.70
2018-07-20T14:53:02.371Z,32.70
2018-07-20T14:57:57.225Z,32.60
2018-07-20T15:00:24.704Z,32.50
2018-07-20T15:02:52.175Z,32.50
2018-07-20T15:05:19.698Z,32.30
2018-07-20T15:07:47.279Z,32.10
2018-07-20T15:10:14.752Z,32.00
2018-07-20T15:15:09.776Z,32.10
2018-07-20T15:17:37.747Z,32.20
2018-07-20T15:20:06.256Z,32.30
2018-07-20T15:22:34.256Z,32.20
2018-07-20T15:25:01.753Z,32.20
2018-07-20T15:27:29.211Z,32.30
2018-07-20T15:29:56.676Z,32.30
2018-07-20T15:32:24.239Z,32.30
2018-07-20T15:34:51.827Z,32.20
2018-07-20T15:37:19.320Z,32.00
2018-07-20T15:39:46.832Z,31.90
2018-07-20T15:44:41.792Z,31.50
2018-07-20T15:47:09.316Z,31.40
2018-07-20T15:49:36.800Z,31.10
2018-07-20T15:54:32.045Z,31.20
2018-07-20T15:56:59.459Z,31.20
2018-07-20T15:59:27.919Z,31.30
2018-07-20T16:01:56.437Z,31.30
2018-07-20T16:04:24.944Z,31.30
2018-07-20T16:06:52.367Z,31.30
2018-07-20T16:09:19.806Z,31.30
2018-07-20T16:11:47.315Z,31.30
2018-07-20T16:19:09.682Z,31.30
2018-07-20T16:21:37.115Z,31.30
2018-07-20T16:24:04.556Z,31.40
2018-07-20T16:26:32.079Z,31.30
2018-07-20T16:28:59.510Z,31.20
2018-07-20T16:31:26.927Z,31.30
2018-07-20T16:33:54.476Z,31.20
2018-07-20T16:36:21.972Z,31.10
2018-07-20T16:38:49.370Z,31.10
2018-07-20T16:41:16.852Z,31.00
2018-07-20T16:43:44.510Z,31.10
2018-07-20T16:46:12.183Z,31.10
2018-07-20T16:48:39.617Z,31.10
2018-07-20T16:51:07.103Z,31.10
2018-07-20T16:53:34.538Z,31.00
2018-07-20T16:56:02.079Z,31.00
2018-07-20T16:58:29.537Z,31.00
2018-07-20T17:03:24.468Z,31.10
2018-07-20T17:05:51.932Z,31.00
2018-07-20T17:08:19.767Z,30.90
2018-07-20T17:10:47.421Z,30.80
2018-07-20T17:13:15.065Z,30.80
2018-07-20T17:15:42.519Z,30.90
2018-07-20T17:18:10.011Z,30.90
2018-07-20T17:28:01.472Z,31.00
2018-07-20T17:30:29.048Z,30.90
2018-07-20T17:32:56.517Z,30.90
2018-07-20T17:35:24.027Z,30.80
2018-07-20T17:37:51.496Z,30.70
2018-07-20T17:40:18.971Z,30.70
2018-07-20T17:42:46.514Z,30.60
2018-07-20T17:45:14.030Z,30.50
2018-07-20T17:47:41.498Z,30.50
2018-07-20T17:50:09.080Z,30.50
2018-07-20T17:52:36.636Z,30.40
2018-07-20T17:55:04.316Z,30.30
2018-07-20T17:57:31.768Z,30.20
2018-07-20T17:59:59.140Z,30.10
2018-07-20T18:02:26.595Z,30.00
2018-07-20T18:04:54.114Z,30.10
2018-07-20T18:07:21.495Z,30.00
2018-07-20T18:09:48.922Z,30.00
2018-07-20T18:12:16.325Z,30.00
2018-07-20T18:14:43.734Z,29.90
2018-07-20T18:17:11.169Z,29.90
2018-07-20T18:19:38.691Z,29.90
2018-07-20T18:22:06.161Z,29.90
2018-07-20T18:24:33.592Z,29.90
2018-07-20T18:27:01.615Z,29.80
2018-07-20T18:29:28.999Z,29.80
2018-07-20T18:31:56.377Z,29.70
2018-07-20T18:34:23.852Z,29.60
2018-07-20T18:36:51.327Z,29.60
2018-07-20T18:39:18.727Z,29.50
2018-07-20T18:41:46.163Z,29.40
2018-07-20T18:44:15.655Z,29.30
2018-07-20T18:46:43.043Z,29.20
2018-07-20T18:49:10.539Z,29.20
2018-07-20T18:51:37.947Z,29.20
2018-07-20T18:54:05.524Z,29.10
2018-07-20T18:56:32.980Z,29.00
2018-07-20T18:59:00.475Z,28.80
2018-07-20T19:01:27.971Z,28.70
2018-07-20T19:03:55.435Z,28.60
2018-07-20T19:06:22.987Z,28.60
2018-07-20T19:08:50.429Z,28.50
2018-07-20T19:11:17.911Z,28.40
2018-07-20T19:13:45.320Z,28.30
2018-07-20T19:16:12.758Z,28.20
2018-07-20T19:18:40.219Z,28.20
2018-07-20T19:21:07.787Z,28.00
2018-07-20T19:23:35.389Z,28.00
2018-07-20T19:26:02.847Z,27.90
2018-07-20T19:28:30.408Z,27.80
2018-07-20T19:30:57.890Z,27.80
2018-07-20T19:33:25.439Z,27.70
2018-07-20T19:35:52.972Z,27.60
2018-07-20T19:38:20.415Z,27.60
2018-07-20T19:40:47.900Z,27.50
2018-07-20T19:45:42.786Z,27.40
2018-07-20T19:48:10.240Z,27.20
2018-07-20T19:50:37.832Z,27.20
2018-07-20T19:53:05.395Z,27.10
2018-07-20T19:55:32.834Z,27.10
2018-07-20T19:58:00.275Z,27.00
2018-07-20T20:00:27.746Z,27.00
2018-07-20T20:02:55.303Z,27.00
2018-07-20T20:05:22.919Z,26.90
2018-07-20T20:07:50.409Z,26.90
2018-07-20T20:10:18.927Z,26.80
2018-07-20T20:12:47.384Z,26.70
2018-07-20T20:15:14.947Z,26.70
2018-07-20T20:17:42.416Z,26.70
2018-07-20T20:20:11.688Z,26.70
2018-07-20T20:22:40.451Z,26.70
2018-07-20T20:27:35.549Z,26.40
2018-07-20T20:30:03.064Z,26.40
2018-07-20T20:32:30.871Z,26.40
2018-07-20T20:34:58.403Z,26.40
2018-07-20T20:37:26.151Z,26.40
2018-07-20T20:39:53.636Z,26.30
2018-07-20T20:42:21.067Z,26.30
2018-07-20T20:44:48.533Z,26.30
2018-07-20T20:47:16.004Z,26.30
2018-07-20T20:49:43.426Z,26.30
2018-07-20T20:52:10.883Z,26.30
2018-07-20T20:54:38.335Z,26.20
2018-07-20T20:57:05.923Z,25.90
2018-07-20T20:59:33.389Z,25.70
2018-07-20T21:02:00.763Z,25.60
2018-07-20T21:09:24.196Z,25.00
2018-07-20T21:11:51.774Z,24.80
2018-07-20T21:14:19.167Z,24.60
2018-07-20T21:16:46.588Z,24.50
2018-07-20T21:19:14.112Z,24.40
2018-07-20T21:21:41.536Z,24.30
2018-07-20T21:24:08.964Z,24.20
2018-07-20T21:26:36.415Z,24.20
2018-07-20T21:31:31.365Z,24.10
2018-07-20T21:33:58.899Z,24.10
2018-07-20T21:36:26.295Z,24.00
2018-07-20T21:38:53.760Z,23.80
2018-07-20T21:41:21.148Z,23.70
2018-07-20T21:43:48.676Z,23.60
2018-07-20T21:46:16.100Z,23.50
2018-07-20T21:48:43.588Z,23.40
2018-07-20T21:51:10.985Z,23.30
2018-07-20T21:53:38.412Z,23.20
2018-07-20T21:56:05.985Z,23.20
2018-07-20T21:58:33.510Z,23.10
2018-07-20T22:01:01.794Z,23.00
2018-07-20T22:03:29.314Z,23.10
2018-07-20T22:05:56.743Z,23.10
2018-07-20T22:08:24.186Z,23.10
2018-07-20T22:10:51.584Z,23.00
2018-07-20T22:13:19.005Z,23.00
2018-07-20T22:15:46.559Z,23.00
2018-07-20T22:18:13.982Z,23.00
2018-07-20T22:23:08.919Z,22.90
2018-07-20T22:28:03.774Z,22.90
2018-07-20T22:30:31.224Z,22.90
2018-07-20T22:32:59.716Z,22.90
2018-07-20T22:35:27.359Z,22.90
2018-07-20T22:37:54.750Z,22.90
2018-07-20T22:40:22.200Z,22.90
2018-07-20T22:42:49.612Z,23.00
2018-07-20T22:45:17.103Z,23.00
2018-07-20T22:47:44.607Z,23.00
2018-07-20T22:50:12.014Z,22.90
2018-07-20T22:52:40.777Z,22.90
2018-07-20T22:55:08.273Z,22.90
2018-07-20T22:57:35.775Z,22.90
2018-07-20T23:00:03.624Z,22.90
2018-07-20T23:02:31.076Z,22.90
2018-07-20T23:04:58.610Z,22.80
2018-07-20T23:07:26.116Z,22.90
2018-07-20T23:09:53.567Z,22.90
2018-07-20T23:12:21.039Z,22.90
2018-07-20T23:14:48.492Z,22.90
2018-07-20T23:17:15.941Z,23.00
2018-07-20T23:22:10.927Z,23.00
2018-07-20T23:24:38.382Z,23.00
2018-07-20T23:27:07.920Z,23.00
2018-07-20T23:29:35.364Z,23.00
2018-07-20T23:32:02.791Z,22.90
2018-07-20T23:34:30.266Z,22.90
2018-07-20T23:36:57.729Z,22.90
2018-07-20T23:39:25.316Z,22.90
2018-07-20T23:44:20.383Z,22.90
2018-07-20T23:46:47.823Z,22.90
2018-07-20T23:49:15.248Z,22.90
2018-07-20T23:51:42.743Z,22.90
2018-07-20T23:54:10.289Z,22.80
2018-07-20T23:56:37.827Z,22.80
2018-07-20T23:59:05.226Z,22.80
